createdAt,value
2023-04-06T00:17:11.369Z,24.50
2023-04-06T00:22:14.713Z,23.58
2023-04-06T00:27:17.285Z,21.67
2023-04-06T00:32:21.297Z,20.80
2023-04-06T00:37:24.002Z,20.33
2023-04-06T00:42:26.804Z,20.80
2023-04-06T00:47:31.110Z,20.08
2023-04-06T00:52:34.682Z,16.97
2023-04-06T00:57:37.770Z,19.98
2023-04-06T01:02:42.341Z,19.92
2023-04-06T01:07:46.887Z,19.53
2023-04-06T01:12:54.013Z,19.50
2023-04-06T01:18:16.997Z,19.67
2023-04-06T01:23:30.544Z,19.95
2023-04-06T01:28:33.233Z,24.30
2023-04-06T01:33:50.561Z,22.83
2023-04-06T01:38:57.745Z,22.20
2023-04-06T01:44:07.757Z,25.93
2023-04-06T01:49:10.525Z,19.90
2023-04-06T01:54:17.656Z,24.33
2023-04-06T01:59:38.772Z,23.70
2023-04-06T02:04:48.009Z,22.50
2023-04-06T02:09:55.404Z,20.83
2023-04-06T02:15:02.718Z,26.30
2023-04-06T02:20:06.736Z,22.38
2023-04-06T02:25:11.300Z,21.77
2023-04-06T02:30:15.098Z,22.80
2023-04-06T02:35:17.608Z,23.27
2023-04-06T02:40:24.943Z,20.98
2023-04-06T02:45:27.620Z,20.70
2023-04-06T02:50:31.409Z,26.17
2023-04-06T02:55:39.915Z,21.00
2023-04-06T03:00:42.697Z,25.97
2023-04-06T03:05:48.134Z,20.63
2023-04-06T03:10:55.017Z,20.77
2023-04-06T03:16:00.123Z,24.47
2023-04-06T03:21:03.780Z,24.15
2023-04-06T03:26:21.561Z,31.83
2023-04-06T03:31:27.665Z,34.08
2023-04-06T03:36:42.535Z,30.52
2023-04-06T03:41:46.501Z,34.77
2023-04-06T03:47:12.229Z,31.45
2023-04-06T03:52:14.809Z,26.33
2023-04-06T03:57:19.175Z,24.58
2023-04-06T04:02:22.076Z,21.85
2023-04-06T04:07:26.496Z,23.03
2023-04-06T04:12:30.665Z,25.25
2023-04-06T04:17:34.759Z,30.00
2023-04-06T04:22:37.446Z,27.42
2023-04-06T04:27:44.814Z,24.35
2023-04-06T04:32:48.121Z,27.10
2023-04-06T04:37:55.285Z,25.23
2023-04-06T04:43:00.527Z,31.77
2023-04-06T04:48:07.756Z,41.25
2023-04-06T04:53:24.656Z,32.70
2023-04-06T04:58:34.235Z,26.33
2023-04-06T05:03:38.785Z,28.52
2023-04-06T05:08:43.858Z,26.53
2023-04-06T05:13:48.877Z,28.48
2023-04-06T05:18:56.480Z,25.90
2023-04-06T05:24:01.722Z,30.43
2023-04-06T05:29:07.768Z,28.83
2023-04-06T05:34:13.347Z,32.70
2023-04-06T05:39:16.118Z,26.42
2023-04-06T05:44:24.077Z,26.45
2023-04-06T05:49:37.227Z,43.50
2023-04-06T05:54:43.793Z,63.00
2023-04-06T05:59:47.818Z,54.67
2023-04-06T06:04:52.350Z,42.70
2023-04-06T06:09:58.335Z,52.40
2023-04-06T06:15:09.405Z,34.37
2023-04-06T06:20:17.353Z,25.77
2023-04-06T06:25:20.745Z,25.27
2023-04-06T06:30:26.320Z,28.83
2023-04-06T06:35:29.565Z,51.30
2023-04-06T06:40:32.508Z,19.63
2023-04-06T06:45:36.734Z,26.25
2023-04-06T06:50:40.093Z,35.37
2023-04-06T06:55:43.349Z,24.95
2023-04-06T07:00:47.590Z,26.17
2023-04-06T07:05:51.738Z,22.00
2023-04-06T07:10:55.104Z,21.58
2023-04-06T07:15:59.655Z,23.37
2023-04-06T07:21:04.866Z,19.02
2023-04-06T07:26:07.887Z,19.90
2023-04-06T07:31:12.271Z,23.67
2023-04-06T07:36:15.217Z,23.52
2023-04-06T07:41:17.876Z,15.03
2023-04-06T07:46:22.738Z,11.85
2023-04-06T07:51:27.051Z,12.05
2023-04-06T07:56:29.780Z,12.40
2023-04-06T08:01:34.035Z,10.65
2023-04-06T08:06:36.872Z,11.43
2023-04-06T08:11:39.700Z,11.18
2023-04-06T08:16:44.423Z,13.75
2023-04-06T08:21:50.532Z,13.67
2023-04-06T08:26:54.110Z,9.43
2023-04-06T08:31:58.171Z,8.67
2023-04-06T08:37:02.880Z,10.90
2023-04-06T08:42:11.319Z,11.93
2023-04-06T08:47:15.624Z,15.97
2023-04-06T08:52:20.297Z,14.15
2023-04-06T08:57:23.388Z,19.60
2023-04-06T09:02:34.661Z,13.48
2023-04-06T09:07:37.490Z,9.38
2023-04-06T09:12:43.002Z,17.63
2023-04-06T09:17:47.189Z,19.17
2023-04-06T09:22:50.144Z,13.83
2023-04-06T09:28:01.318Z,17.23
2023-04-06T09:33:05.988Z,11.95
2023-04-06T09:38:12.822Z,10.80
2023-04-06T09:43:25.751Z,13.02
2023-04-06T09:48:35.133Z,10.33
2023-04-06T09:53:43.023Z,14.77
2023-04-06T09:58:51.113Z,12.73
2023-04-06T10:04:11.701Z,10.87
2023-04-06T10:09:15.165Z,10.10
2023-04-06T10:14:18.274Z,12.60
2023-04-06T10:19:30.046Z,10.20
2023-04-06T10:24:32.957Z,11.82
2023-04-06T10:29:46.683Z,11.10
2023-04-06T10:34:50.954Z,23.15
2023-04-06T10:39:54.690Z,17.17
2023-04-06T10:44:57.518Z,11.52
2023-04-06T10:50:01.571Z,8.07
2023-04-06T10:55:05.948Z,10.30
2023-04-06T11:00:12.532Z,10.27
2023-04-06T11:05:17.282Z,14.67
2023-04-06T11:10:23.533Z,10.32
2023-04-06T11:15:26.766Z,12.38
2023-04-06T11:20:30.928Z,13.03
2023-04-06T11:25:34.015Z,14.60
2023-04-06T11:30:37.153Z,10.93
2023-04-06T11:35:41.998Z,9.30
2023-04-06T11:40:44.761Z,8.80
2023-04-06T11:45:47.498Z,13.73
2023-04-06T11:50:58.058Z,14.18
2023-04-06T11:56:00.836Z,11.13
2023-04-06T12:01:06.728Z,12.32
2023-04-06T12:06:10.729Z,12.07
2023-04-06T12:11:13.892Z,12.13
2023-04-06T12:16:16.621Z,8.73
2023-04-06T12:21:23.521Z,14.07
2023-04-06T12:26:26.923Z,18.83
2023-04-06T12:31:29.709Z,16.63
2023-04-06T12:36:34.310Z,14.63
2023-04-06T12:41:37.165Z,14.15
2023-04-06T12:46:39.906Z,20.07
2023-04-06T12:51:44.191Z,17.45
2023-04-06T12:56:46.884Z,21.92
2023-04-06T13:01:52.185Z,19.43
2023-04-06T13:06:56.444Z,19.23
2023-04-06T13:11:58.957Z,13.00
2023-04-06T13:17:01.644Z,12.10
2023-04-06T13:22:06.006Z,9.32
2023-04-06T13:27:08.571Z,10.47
2023-04-06T13:32:11.363Z,11.30
2023-04-06T13:37:16.517Z,17.07
2023-04-06T13:42:19.241Z,12.43
2023-04-06T13:47:25.018Z,12.98
2023-04-06T13:52:31.808Z,12.90
2023-04-06T13:57:34.410Z,18.98
2023-04-06T14:02:37.014Z,9.80
2023-04-06T14:07:41.114Z,10.45
2023-04-06T14:12:44.496Z,9.95
2023-04-06T14:17:47.142Z,12.50
2023-04-06T14:22:53.992Z,15.80
2023-04-06T14:27:57.504Z,11.67
2023-04-06T14:33:00.203Z,14.57
2023-04-06T14:38:07.292Z,13.13
2023-04-06T14:43:09.767Z,10.90
2023-04-06T14:48:12.376Z,9.45
2023-04-06T14:53:18.839Z,7.90
2023-04-06T14:58:26.156Z,12.88
2023-04-06T15:03:31.737Z,10.48
2023-04-06T15:08:35.683Z,10.67
2023-04-06T15:13:38.402Z,15.82
2023-04-06T15:18:41.361Z,12.70
2023-04-06T15:23:45.537Z,12.80
2023-04-06T15:28:48.242Z,14.13
2023-04-06T15:33:53.574Z,13.00
2023-04-06T15:38:58.422Z,11.50
2023-04-06T15:44:01.016Z,10.10
2023-04-06T15:49:03.935Z,11.60
2023-04-06T15:54:08.033Z,8.57
2023-04-06T15:59:10.732Z,10.07
2023-04-06T16:04:13.385Z,10.90
2023-04-06T16:09:17.505Z,7.97
2023-04-06T16:14:20.001Z,9.75
2023-04-06T16:19:22.766Z,10.40
2023-04-06T16:24:26.859Z,27.40
2023-04-06T16:29:29.387Z,16.38
2023-04-06T16:34:32.681Z,9.20
2023-04-06T16:39:39.624Z,11.40
2023-04-06T16:44:42.231Z,14.43
2023-04-06T16:49:44.984Z,10.77
2023-04-06T16:54:50.123Z,7.55
2023-04-06T16:59:53.381Z,10.20
2023-04-06T17:04:55.964Z,11.98
2023-04-06T17:10:00.644Z,12.98
2023-04-06T17:15:03.491Z,10.80
2023-04-06T17:20:08.212Z,8.48
2023-04-06T17:25:12.677Z,8.40
2023-04-06T17:30:17.140Z,9.27
2023-04-06T17:35:22.424Z,7.93
2023-04-06T17:40:26.763Z,8.07
2023-04-06T17:45:29.252Z,9.70
2023-04-06T17:50:31.793Z,10.00
2023-04-06T17:55:38.901Z,10.30
2023-04-06T18:00:41.495Z,8.65
2023-04-06T18:05:44.210Z,11.37
2023-04-06T18:10:48.451Z,10.60
2023-04-06T18:15:51.005Z,11.40
2023-04-06T18:20:53.547Z,10.50
2023-04-06T18:25:57.531Z,10.35
2023-04-06T18:31:00.376Z,10.83
2023-04-06T18:36:04.144Z,9.90
2023-04-06T18:41:08.238Z,12.67
2023-04-06T18:46:12.325Z,12.00
2023-04-06T18:51:15.045Z,12.07
2023-04-06T18:56:19.958Z,12.67
2023-04-06T19:01:24.606Z,11.07
2023-04-06T19:06:27.676Z,11.37
2023-04-06T19:11:33.119Z,11.93
2023-04-06T19:16:36.514Z,12.32
2023-04-06T19:21:39.129Z,9.20
2023-04-06T19:26:43.088Z,9.43
2023-04-06T19:31:45.788Z,11.33
2023-04-06T19:36:48.800Z,10.95
2023-04-06T19:41:56.836Z,11.95
2023-04-06T19:47:00.261Z,14.07
2023-04-06T19:52:02.807Z,10.93
2023-04-06T19:57:06.722Z,10.13
2023-04-06T20:02:09.462Z,11.60
2023-04-06T20:07:12.021Z,10.43
2023-04-06T20:12:15.825Z,11.17
2023-04-06T20:17:18.279Z,14.15
2023-04-06T20:22:21.120Z,10.83
2023-04-06T20:27:25.017Z,11.30
2023-04-06T20:32:27.606Z,12.30
2023-04-06T20:37:30.273Z,16.60
2023-04-06T20:42:34.613Z,11.25
2023-04-06T20:47:37.119Z,12.50
2023-04-06T20:52:39.651Z,11.68
2023-04-06T20:57:45.066Z,16.65
2023-04-06T21:02:48.817Z,12.70
2023-04-06T21:07:51.492Z,11.02
2023-04-06T21:12:55.411Z,17.80
2023-04-06T21:17:57.951Z,13.32
2023-04-06T21:23:00.538Z,15.32
2023-04-06T21:28:07.547Z,13.53
2023-04-06T21:33:10.197Z,13.60
2023-04-06T21:38:12.894Z,15.60
2023-04-06T21:43:16.863Z,12.13
2023-04-06T21:48:19.427Z,15.50
2023-04-06T21:53:22.190Z,16.40
2023-04-06T21:58:26.386Z,12.88
2023-04-06T22:03:29.293Z,14.67
2023-04-06T22:08:33.997Z,17.75
2023-04-06T22:13:39.356Z,21.50
2023-04-06T22:18:42.065Z,15.30
2023-04-06T22:23:44.652Z,18.63
2023-04-06T22:28:48.971Z,20.53
2023-04-06T22:33:51.461Z,19.65
2023-04-06T22:38:56.419Z,24.23
2023-04-06T22:44:00.209Z,18.17
2023-04-06T22:49:02.625Z,23.92
2023-04-06T22:54:08.286Z,21.40
2023-04-06T22:59:12.541Z,25.30
2023-04-06T23:04:14.994Z,25.20
2023-04-06T23:09:17.478Z,25.07
2023-04-06T23:14:21.365Z,22.02
2023-04-06T23:19:23.893Z,19.17
2023-04-06T23:24:26.689Z,19.63
2023-04-06T23:29:33.616Z,18.38
2023-04-06T23:34:36.179Z,21.23
2023-04-06T23:39:38.887Z,20.08
2023-04-06T23:44:43.028Z,18.07
2023-04-06T23:49:45.639Z,22.67
2023-04-06T23:54:48.117Z,20.77
2023-04-06T23:59:52.215Z,21.80
